createdAt,value
2023-05-04T00:01:37.172Z,89.09
2023-05-04T00:04:05.848Z,89.32
2023-05-04T00:06:34.951Z,88.11
2023-05-04T00:09:04.129Z,87.98
2023-05-04T00:11:34.859Z,88.23
2023-05-04T00:14:03.346Z,88.47
2023-05-04T00:16:32.003Z,89.97
2023-05-04T00:19:00.644Z,90.14
2023-05-04T00:21:29.219Z,89.72
2023-05-04T00:23:57.807Z,89.52
2023-05-04T00:26:26.324Z,89.27
2023-05-04T00:28:56.427Z,89.56
2023-05-04T00:31:25.034Z,89.45
2023-05-04T00:33:53.825Z,89.95
2023-05-04T00:36:22.393Z,90.24
2023-05-04T00:38:51.714Z,90.29
2023-05-04T00:41:21.518Z,90.19
2023-05-04T00:43:50.227Z,90.11
2023-05-04T00:46:20.253Z,91.14
2023-05-04T00:48:51.797Z,90.96
2023-05-04T00:51:21.778Z,91.35
2023-05-04T00:53:51.119Z,91.96
2023-05-04T00:56:20.212Z,92.52
2023-05-04T00:58:48.740Z,92.44
2023-05-04T01:01:17.467Z,92.76
2023-05-04T01:03:47.766Z,94.39
2023-05-04T01:06:26.147Z,94.11
2023-05-04T01:09:00.427Z,93.69
2023-05-04T01:11:38.565Z,95.03
2023-05-04T01:14:08.716Z,94.53
2023-05-04T01:16:37.754Z,96.06
2023-05-04T01:19:07.964Z,97.07
2023-05-04T01:21:39.395Z,96.68
2023-05-04T01:24:08.636Z,96.65
2023-05-04T01:26:42.220Z,97.76
2023-05-04T01:29:17.734Z,97.29
2023-05-04T01:31:47.482Z,96.01
2023-05-04T01:34:18.068Z,96.08
2023-05-04T01:36:48.573Z,96.63
2023-05-04T01:39:17.448Z,96.03
2023-05-04T01:41:46.237Z,96.44
2023-05-04T01:44:15.089Z,96.96
2023-05-04T01:46:43.840Z,96.77
2023-05-04T01:49:12.368Z,96.87
2023-05-04T01:51:40.715Z,97.16
2023-05-04T01:54:10.590Z,97.29
2023-05-04T01:56:39.144Z,97.85
2023-05-04T01:59:07.560Z,98.12
2023-05-04T02:01:36.848Z,98.46
2023-05-04T02:04:06.262Z,99.08
2023-05-04T02:06:34.901Z,99.82
2023-05-04T02:09:03.749Z,100.00
2023-05-04T02:11:34.162Z,100.00
2023-05-04T02:14:02.890Z,100.00
2023-05-04T02:16:31.789Z,100.00
2023-05-04T02:19:06.650Z,100.00
2023-05-04T02:21:35.395Z,100.00
2023-05-04T02:24:06.617Z,100.00
2023-05-04T02:26:37.215Z,100.00
2023-05-04T02:29:06.432Z,100.00
2023-05-04T02:31:35.483Z,100.00
2023-05-04T02:34:04.063Z,100.00
2023-05-04T02:36:32.466Z,100.00
2023-05-04T02:39:01.534Z,100.00
2023-05-04T02:41:30.708Z,100.00
2023-05-04T02:44:01.064Z,100.00
2023-05-04T02:46:29.547Z,100.00
2023-05-04T02:48:58.112Z,100.00
2023-05-04T02:51:27.044Z,100.00
2023-05-04T02:53:55.538Z,100.00
2023-05-04T02:56:24.515Z,100.00
2023-05-04T02:58:52.982Z,100.00
2023-05-04T03:01:23.017Z,100.00
2023-05-04T03:03:51.485Z,100.00
2023-05-04T03:06:20.108Z,100.00
2023-05-04T03:08:48.690Z,100.00
2023-05-04T03:11:17.394Z,100.00
2023-05-04T03:13:46.039Z,100.00
2023-05-04T03:16:14.906Z,100.00
2023-05-04T03:18:45.203Z,100.00
2023-05-04T03:21:13.769Z,100.00
2023-05-04T03:23:42.314Z,100.00
2023-05-04T03:26:10.936Z,100.00
2023-05-04T03:28:39.769Z,100.00
2023-05-04T03:31:08.233Z,100.00
2023-05-04T03:33:36.832Z,100.00
2023-05-04T03:36:07.831Z,100.00
2023-05-04T03:38:36.564Z,100.00
2023-05-04T03:41:04.970Z,100.00
2023-05-04T03:43:33.452Z,100.00
2023-05-04T03:46:01.958Z,100.00
2023-05-04T03:48:30.575Z,100.00
2023-05-04T03:50:59.518Z,100.00
2023-05-04T03:53:29.484Z,100.00
2023-05-04T03:55:57.928Z,100.00
2023-05-04T03:58:26.350Z,100.00
2023-05-04T04:00:55.059Z,100.00
2023-05-04T04:03:23.809Z,100.00
2023-05-04T04:05:52.460Z,100.00
2023-05-04T04:08:21.016Z,100.00
2023-05-04T04:10:51.597Z,100.00
2023-05-04T04:13:20.251Z,100.00
2023-05-04T04:15:52.334Z,100.00
2023-05-04T04:18:20.908Z,100.00
2023-05-04T04:20:49.896Z,100.00
2023-05-04T04:23:19.557Z,100.00
2023-05-04T04:25:48.553Z,100.00
2023-05-04T04:28:19.292Z,100.00
2023-05-04T04:30:48.440Z,100.00
2023-05-04T04:33:17.256Z,100.00
2023-05-04T04:35:46.454Z,100.00
2023-05-04T04:38:14.922Z,100.00
2023-05-04T04:40:43.631Z,100.00
2023-05-04T04:43:13.244Z,100.00
2023-05-04T04:45:43.220Z,100.00
2023-05-04T04:48:11.607Z,100.00
2023-05-04T04:50:40.991Z,100.00
2023-05-04T04:53:09.329Z,100.00
2023-05-04T04:55:38.777Z,100.00
2023-05-04T04:58:09.066Z,100.00
2023-05-04T05:00:37.777Z,100.00
2023-05-04T05:03:07.808Z,100.00
2023-05-04T05:05:36.270Z,100.00
2023-05-04T05:08:04.899Z,100.00
2023-05-04T05:10:33.282Z,100.00
2023-05-04T05:13:02.831Z,100.00
2023-05-04T05:15:31.840Z,100.00
2023-05-04T05:18:00.686Z,100.00
2023-05-04T05:20:31.077Z,100.00
2023-05-04T05:23:00.338Z,100.00
2023-05-04T05:25:28.877Z,100.00
2023-05-04T05:27:57.371Z,100.00
2023-05-04T05:30:28.450Z,100.00
2023-05-04T05:32:56.894Z,100.00
2023-05-04T05:35:25.316Z,100.00
2023-05-04T05:37:55.201Z,100.00
2023-05-04T05:40:24.044Z,100.00
2023-05-04T05:42:53.033Z,100.00
2023-05-04T05:45:21.567Z,100.00
2023-05-04T05:47:50.319Z,100.00
2023-05-04T05:50:19.689Z,100.00
2023-05-04T05:52:48.139Z,98.63
2023-05-04T05:55:18.552Z,96.53
2023-05-04T05:57:47.167Z,95.90
2023-05-04T06:00:17.055Z,95.76
2023-05-04T06:02:45.840Z,95.64
2023-05-04T06:05:14.419Z,94.95
2023-05-04T06:07:42.848Z,93.05
2023-05-04T06:10:12.234Z,93.43
2023-05-04T06:12:42.165Z,94.15
2023-05-04T06:15:12.439Z,94.40
2023-05-04T06:17:40.952Z,92.93
2023-05-04T06:20:11.627Z,92.11
2023-05-04T06:22:40.659Z,92.19
2023-05-04T06:25:10.065Z,90.72
2023-05-04T06:27:38.930Z,89.66
2023-05-04T06:30:11.673Z,89.28
2023-05-04T06:32:40.180Z,88.78
2023-05-04T06:35:11.161Z,88.17
2023-05-04T06:37:39.564Z,86.20
2023-05-04T06:40:09.701Z,86.43
2023-05-04T06:42:38.269Z,83.44
2023-05-04T06:45:09.408Z,83.06
2023-05-04T06:47:38.173Z,82.20
2023-05-04T06:50:10.926Z,80.46
2023-05-04T06:52:41.221Z,80.71
2023-05-04T06:55:10.032Z,78.41
2023-05-04T06:57:38.658Z,79.75
2023-05-04T07:00:12.346Z,78.20
2023-05-04T07:02:40.913Z,75.55
2023-05-04T07:05:10.112Z,77.51
2023-05-04T07:07:39.054Z,76.80
2023-05-04T07:10:08.510Z,74.73
2023-05-04T07:12:37.034Z,72.83
2023-05-04T07:15:06.967Z,72.19
2023-05-04T07:17:37.974Z,70.29
2023-05-04T07:20:07.837Z,74.30
2023-05-04T07:22:36.666Z,73.75
2023-05-04T07:25:05.825Z,72.86
2023-05-04T07:27:35.290Z,70.63
2023-05-04T07:30:04.494Z,67.77
2023-05-04T07:32:33.624Z,67.88
2023-05-04T07:35:03.493Z,66.69
2023-05-04T07:37:31.992Z,66.76
2023-05-04T07:40:01.671Z,65.24
2023-05-04T07:42:30.383Z,61.18
2023-05-04T07:44:59.076Z,64.21
2023-05-04T07:47:29.157Z,60.64
2023-05-04T07:49:58.147Z,60.18
2023-05-04T07:52:28.079Z,60.32
2023-05-04T07:54:57.119Z,58.05
2023-05-04T07:57:26.318Z,57.67
2023-05-04T07:59:56.129Z,59.00
2023-05-04T08:02:24.695Z,58.78
2023-05-04T08:04:53.317Z,58.14
2023-05-04T08:07:22.865Z,59.99
2023-05-04T08:09:56.092Z,58.91
2023-05-04T08:12:27.190Z,60.34
2023-05-04T08:14:55.700Z,59.26
2023-05-04T08:17:24.182Z,55.46
2023-05-04T08:19:52.729Z,54.37
2023-05-04T08:22:21.477Z,52.45
2023-05-04T08:24:50.414Z,51.05
2023-05-04T08:27:20.439Z,54.63
2023-05-04T08:29:48.948Z,49.69
2023-05-04T08:32:17.747Z,52.64
2023-05-04T08:34:46.254Z,53.14
2023-05-04T08:37:15.058Z,52.02
2023-05-04T08:39:43.838Z,51.53
2023-05-04T08:42:12.739Z,50.34
2023-05-04T08:44:43.933Z,50.42
2023-05-04T08:47:22.165Z,47.64
2023-05-04T08:49:51.176Z,50.51
2023-05-04T08:52:21.501Z,50.43
2023-05-04T08:54:51.402Z,48.34
2023-05-04T08:57:20.716Z,48.50
2023-05-04T08:59:54.119Z,45.89
2023-05-04T09:02:24.330Z,45.35
2023-05-04T09:04:53.770Z,46.36
2023-05-04T09:07:24.046Z,47.76
2023-05-04T09:09:53.309Z,45.86
2023-05-04T09:12:21.971Z,45.73
2023-05-04T09:14:52.119Z,44.35
2023-05-04T09:17:26.050Z,45.47
2023-05-04T09:20:01.430Z,44.46
2023-05-04T09:22:30.973Z,44.13
2023-05-04T09:25:08.872Z,43.55
2023-05-04T09:27:37.447Z,44.15
2023-05-04T09:30:09.414Z,44.97
2023-05-04T09:32:46.384Z,43.22
2023-05-04T09:35:29.190Z,42.05
2023-05-04T09:38:01.705Z,42.64
2023-05-04T09:40:34.679Z,43.63
2023-05-04T09:43:03.368Z,42.45
2023-05-04T09:45:43.022Z,42.00
2023-05-04T09:48:19.359Z,42.04
2023-05-04T09:50:53.080Z,42.52
2023-05-04T09:53:24.203Z,42.31
2023-05-04T09:56:09.903Z,41.32
2023-05-04T09:58:39.055Z,43.23
2023-05-04T10:01:09.722Z,42.38
2023-05-04T10:03:38.541Z,42.42
2023-05-04T10:06:09.322Z,42.30
2023-05-04T10:08:38.570Z,41.24
2023-05-04T10:11:07.711Z,40.80
2023-05-04T10:13:36.297Z,42.03
2023-05-04T10:16:14.583Z,41.28
2023-05-04T10:19:10.587Z,39.24
2023-05-04T10:21:50.243Z,40.87
2023-05-04T10:24:47.050Z,39.60
2023-05-04T10:27:18.884Z,41.24
2023-05-04T10:29:51.183Z,40.69
2023-05-04T10:32:22.336Z,40.63
2023-05-04T10:34:51.237Z,40.36
2023-05-04T10:37:21.971Z,40.17
2023-05-04T10:39:55.172Z,39.16
2023-05-04T10:42:24.307Z,40.67
2023-05-04T10:44:55.457Z,38.82
2023-05-04T10:47:33.707Z,38.81
2023-05-04T10:50:04.221Z,38.65
2023-05-04T10:52:33.478Z,39.58
2023-05-04T10:55:03.277Z,38.92
2023-05-04T10:57:32.332Z,39.55
2023-05-04T11:00:02.099Z,39.34
2023-05-04T11:02:34.340Z,37.06
2023-05-04T11:05:05.598Z,38.18
2023-05-04T11:07:37.173Z,38.71
2023-05-04T11:10:06.614Z,37.05
2023-05-04T11:12:35.829Z,37.37
2023-05-04T11:15:09.190Z,37.53
2023-05-04T11:17:48.991Z,36.35
2023-05-04T11:20:24.801Z,36.80
2023-05-04T11:22:54.134Z,36.03
2023-05-04T11:25:28.954Z,35.87
2023-05-04T11:27:57.694Z,36.03
2023-05-04T11:31:21.947Z,35.26
2023-05-04T11:34:14.239Z,34.62
2023-05-04T11:36:42.826Z,35.10
2023-05-04T11:39:11.911Z,35.75
2023-05-04T11:41:40.680Z,34.71
2023-05-04T11:44:10.417Z,35.46
2023-05-04T11:46:39.204Z,34.78
2023-05-04T11:49:09.390Z,34.90
2023-05-04T11:51:38.313Z,34.02
2023-05-04T11:54:07.442Z,33.03
2023-05-04T11:56:43.554Z,33.79
2023-05-04T11:59:12.029Z,33.58
2023-05-04T12:01:40.625Z,33.84
2023-05-04T12:04:11.337Z,31.92
2023-05-04T12:06:41.081Z,32.75
2023-05-04T12:09:10.103Z,32.88
2023-05-04T12:11:40.948Z,32.43
2023-05-04T12:14:12.017Z,32.86
2023-05-04T12:16:43.320Z,31.69
2023-05-04T12:19:14.560Z,32.31
2023-05-04T12:21:52.025Z,33.42
2023-05-04T12:24:23.196Z,33.21
2023-05-04T12:26:52.620Z,31.84
2023-05-04T12:29:21.698Z,32.24
2023-05-04T12:31:51.850Z,32.24
2023-05-04T12:34:23.790Z,32.26
2023-05-04T12:36:52.953Z,32.04
2023-05-04T12:39:22.330Z,31.96
2023-05-04T12:41:50.829Z,30.02
2023-05-04T12:44:19.459Z,32.03
2023-05-04T12:46:47.965Z,30.98
2023-05-04T12:49:16.969Z,31.57
2023-05-04T12:51:48.658Z,31.77
2023-05-04T12:54:17.248Z,30.06
2023-05-04T12:56:46.008Z,31.42
2023-05-04T12:59:14.453Z,30.26
2023-05-04T13:01:43.005Z,29.34
2023-05-04T13:04:11.522Z,30.45
2023-05-04T13:06:40.161Z,30.99
2023-05-04T13:09:10.275Z,30.21
2023-05-04T13:11:42.368Z,30.21
2023-05-04T13:14:11.080Z,29.18
2023-05-04T13:16:40.545Z,29.57
2023-05-04T13:19:09.239Z,29.98
2023-05-04T13:21:40.797Z,30.10
2023-05-04T13:24:11.811Z,30.34
2023-05-04T13:26:41.313Z,30.16
2023-05-04T13:29:10.286Z,29.71
2023-05-04T13:31:44.840Z,28.99
2023-05-04T13:34:13.902Z,29.14
2023-05-04T13:36:42.976Z,29.28
2023-05-04T13:39:13.362Z,30.11
2023-05-04T13:41:41.841Z,28.96
2023-05-04T13:44:11.362Z,29.95
2023-05-04T13:46:40.841Z,29.65
2023-05-04T13:49:09.919Z,29.58
2023-05-04T13:51:39.431Z,29.53
2023-05-04T13:54:08.996Z,29.42
2023-05-04T13:56:39.158Z,29.17
2023-05-04T13:59:07.638Z,29.50
2023-05-04T14:01:36.225Z,28.93
2023-05-04T14:04:04.830Z,29.51
2023-05-04T14:06:33.271Z,29.99
2023-05-04T14:09:01.752Z,29.62
2023-05-04T14:11:30.884Z,29.08
2023-05-04T14:14:00.787Z,29.36
2023-05-04T14:16:29.565Z,29.77
2023-05-04T14:18:58.412Z,29.75
2023-05-04T14:21:27.034Z,29.23
2023-05-04T14:24:01.254Z,28.47
2023-05-04T14:26:29.745Z,29.04
2023-05-04T14:28:58.552Z,29.57
2023-05-04T14:31:28.543Z,29.67
2023-05-04T14:33:57.220Z,29.30
2023-05-04T14:36:25.629Z,29.21
2023-05-04T14:38:54.064Z,29.18
2023-05-04T14:41:22.447Z,29.92
2023-05-04T14:43:51.007Z,30.10
2023-05-04T14:46:19.604Z,30.31
2023-05-04T14:48:49.797Z,30.53
2023-05-04T14:51:24.045Z,30.05
2023-05-04T14:53:52.646Z,30.54
2023-05-04T14:56:21.137Z,30.55
2023-05-04T14:58:50.070Z,30.57
2023-05-04T15:01:18.682Z,30.64
2023-05-04T15:03:47.215Z,30.67
2023-05-04T15:06:17.116Z,30.11
2023-05-04T15:08:45.614Z,30.23
2023-05-04T15:11:14.025Z,30.31
2023-05-04T15:13:44.893Z,30.90
2023-05-04T15:16:18.123Z,31.12
2023-05-04T15:18:46.541Z,31.56
2023-05-04T15:21:16.679Z,31.65
2023-05-04T15:23:45.476Z,31.42
2023-05-04T15:26:14.058Z,31.61
2023-05-04T15:28:42.462Z,31.43
2023-05-04T15:31:12.661Z,31.35
2023-05-04T15:33:41.459Z,31.43
2023-05-04T15:36:10.839Z,31.45
2023-05-04T15:38:40.845Z,31.51
2023-05-04T15:41:09.262Z,31.33
2023-05-04T15:43:37.787Z,31.22
2023-05-04T15:46:06.421Z,30.75
2023-05-04T15:48:34.904Z,31.25
2023-05-04T15:51:03.733Z,31.61
2023-05-04T15:53:32.307Z,31.66
2023-05-04T15:56:04.024Z,31.55
2023-05-04T15:58:34.408Z,31.51
2023-05-04T16:01:04.406Z,31.87
2023-05-04T16:03:33.791Z,31.85
2023-05-04T16:06:02.531Z,31.86
2023-05-04T16:08:30.977Z,32.07
2023-05-04T16:10:59.352Z,32.12
2023-05-04T16:13:29.611Z,32.21
2023-05-04T16:15:58.190Z,32.33
2023-05-04T16:18:26.683Z,32.40
2023-05-04T16:20:55.772Z,32.73
2023-05-04T16:23:24.442Z,33.05
2023-05-04T16:25:53.251Z,32.99
2023-05-04T16:28:22.069Z,33.15
2023-05-04T16:30:52.214Z,32.78
2023-05-04T16:33:21.191Z,33.12
2023-05-04T16:35:49.814Z,33.91
2023-05-04T16:38:19.680Z,34.35
2023-05-04T16:40:48.295Z,34.45
2023-05-04T16:43:16.855Z,34.69
2023-05-04T16:45:45.853Z,35.60
2023-05-04T16:48:16.199Z,35.76
2023-05-04T16:50:44.994Z,35.99
2023-05-04T16:53:13.566Z,35.96
2023-05-04T16:55:42.372Z,35.93
2023-05-04T16:58:11.359Z,36.08
2023-05-04T17:00:43.053Z,36.73
2023-05-04T17:03:11.775Z,36.62
2023-05-04T17:05:41.752Z,36.55
2023-05-04T17:08:11.566Z,36.71
2023-05-04T17:10:40.129Z,36.98
2023-05-04T17:13:09.054Z,36.98
2023-05-04T17:15:37.721Z,36.95
2023-05-04T17:18:07.136Z,36.74
2023-05-04T17:20:36.111Z,37.11
2023-05-04T17:23:06.682Z,37.40
2023-05-04T17:25:35.552Z,37.95
2023-05-04T17:28:04.562Z,37.61
2023-05-04T17:30:35.871Z,37.84
2023-05-04T17:33:04.557Z,38.08
2023-05-04T17:35:33.081Z,38.12
2023-05-04T17:38:02.384Z,38.74
2023-05-04T17:40:34.356Z,38.83
2023-05-04T17:43:03.477Z,39.42
2023-05-04T17:45:31.966Z,39.59
2023-05-04T17:48:00.846Z,40.15
2023-05-04T17:50:29.418Z,40.49
2023-05-04T17:52:59.428Z,40.73
2023-05-04T17:55:28.038Z,40.71
2023-05-04T17:57:58.153Z,40.64
2023-05-04T18:00:26.707Z,40.49
2023-05-04T18:02:55.403Z,40.24
2023-05-04T18:05:25.268Z,40.36
2023-05-04T18:07:54.066Z,40.58
2023-05-04T18:10:22.619Z,40.65
2023-05-04T18:12:51.272Z,41.03
2023-05-04T18:15:21.509Z,41.69
2023-05-04T18:17:51.528Z,42.45
2023-05-04T18:20:20.302Z,42.44
2023-05-04T18:22:48.858Z,42.58
2023-05-04T18:25:17.321Z,42.49
2023-05-04T18:27:45.938Z,42.59
2023-05-04T18:30:14.626Z,43.39
2023-05-04T18:32:44.482Z,43.84
2023-05-04T18:35:13.065Z,44.14
2023-05-04T18:37:41.866Z,44.27
2023-05-04T18:40:11.413Z,44.53
2023-05-04T18:42:39.933Z,44.66
2023-05-04T18:45:10.565Z,45.05
2023-05-04T18:47:38.992Z,45.01
2023-05-04T18:50:12.712Z,45.73
2023-05-04T18:52:41.454Z,46.28
2023-05-04T18:55:10.399Z,46.86
2023-05-04T18:57:42.103Z,47.52
2023-05-04T19:00:12.081Z,48.09
2023-05-04T19:02:41.006Z,49.21
2023-05-04T19:05:14.297Z,49.62
2023-05-04T19:07:43.519Z,49.98
2023-05-04T19:10:12.376Z,50.34
2023-05-04T19:12:40.945Z,50.78
2023-05-04T19:15:10.574Z,51.38
2023-05-04T19:17:39.211Z,51.94
2023-05-04T19:20:09.295Z,52.30
2023-05-04T19:22:39.246Z,52.94
2023-05-04T19:25:08.450Z,53.05
2023-05-04T19:27:36.913Z,53.35
2023-05-04T19:30:06.194Z,54.00
2023-05-04T19:32:34.934Z,54.79
2023-05-04T19:35:03.689Z,54.85
2023-05-04T19:37:32.945Z,55.15
2023-05-04T19:40:03.100Z,55.62
2023-05-04T19:42:31.960Z,56.17
2023-05-04T19:45:00.654Z,56.88
2023-05-04T19:47:30.084Z,56.59
2023-05-04T19:49:58.616Z,56.78
2023-05-04T19:52:27.147Z,57.09
2023-05-04T19:54:55.732Z,57.36
2023-05-04T19:57:25.578Z,57.70
2023-05-04T19:59:55.965Z,57.30
2023-05-04T20:02:24.678Z,57.78
2023-05-04T20:04:53.690Z,59.09
2023-05-04T20:07:22.328Z,59.50
2023-05-04T20:09:50.818Z,59.99
2023-05-04T20:12:19.821Z,60.15
2023-05-04T20:14:49.762Z,60.34
2023-05-04T20:17:18.387Z,60.25
2023-05-04T20:19:47.756Z,60.68
2023-05-04T20:22:16.635Z,60.43
2023-05-04T20:24:45.323Z,60.97
2023-05-04T20:27:13.959Z,61.81
2023-05-04T20:29:42.847Z,62.20
2023-05-04T20:32:13.469Z,62.90
2023-05-04T20:34:43.403Z,62.54
2023-05-04T20:37:13.377Z,62.64
2023-05-04T20:39:41.968Z,64.04
2023-05-04T20:42:10.511Z,64.73
2023-05-04T20:44:42.646Z,65.80
2023-05-04T20:47:12.744Z,66.73
2023-05-04T20:49:41.279Z,66.93
2023-05-04T20:52:09.765Z,67.18
2023-05-04T20:54:38.212Z,67.96
2023-05-04T20:57:06.834Z,68.12
2023-05-04T20:59:36.045Z,68.55
2023-05-04T21:02:04.688Z,69.21
2023-05-04T21:04:34.840Z,69.49
2023-05-04T21:07:03.299Z,69.35
2023-05-04T21:09:32.479Z,69.81
2023-05-04T21:12:01.119Z,69.55
2023-05-04T21:14:29.816Z,69.41
2023-05-04T21:16:58.315Z,69.74
2023-05-04T21:19:26.789Z,70.10
2023-05-04T21:21:57.117Z,71.25
2023-05-04T21:24:25.583Z,70.67
2023-05-04T21:26:54.286Z,70.79
2023-05-04T21:29:22.815Z,71.28
2023-05-04T21:31:51.728Z,71.22
2023-05-04T21:34:20.286Z,71.01
2023-05-04T21:36:51.235Z,70.91
2023-05-04T21:39:21.856Z,70.81
2023-05-04T21:41:50.370Z,70.80
2023-05-04T21:44:18.919Z,70.90
2023-05-04T21:46:47.532Z,71.04
2023-05-04T21:49:16.017Z,70.71
2023-05-04T21:51:44.516Z,70.74
2023-05-04T21:54:12.943Z,70.70
2023-05-04T21:56:43.793Z,71.20
2023-05-04T21:59:12.185Z,70.99
2023-05-04T22:01:40.700Z,71.10
2023-05-04T22:04:09.809Z,72.47
2023-05-04T22:06:38.801Z,72.45
2023-05-04T22:09:07.368Z,73.56
2023-05-04T22:11:36.041Z,73.32
2023-05-04T22:14:05.966Z,73.32
2023-05-04T22:16:34.737Z,73.44
2023-05-04T22:19:03.558Z,73.75
2023-05-04T22:21:32.960Z,74.50
2023-05-04T22:24:01.581Z,75.00
2023-05-04T22:26:30.581Z,75.34
2023-05-04T22:28:59.069Z,75.39
2023-05-04T22:31:29.373Z,75.58
2023-05-04T22:33:57.886Z,75.61
2023-05-04T22:36:26.516Z,76.17
2023-05-04T22:38:55.066Z,76.17
2023-05-04T22:41:23.914Z,76.28
2023-05-04T22:43:52.431Z,76.28
2023-05-04T22:46:21.038Z,76.20
2023-05-04T22:48:50.914Z,76.70
2023-05-04T22:51:19.388Z,77.57
2023-05-04T22:53:47.981Z,77.66
2023-05-04T22:56:16.407Z,77.73
2023-05-04T22:58:46.796Z,78.38
2023-05-04T23:01:15.378Z,78.47
2023-05-04T23:03:44.957Z,78.82
2023-05-04T23:06:15.445Z,79.60
2023-05-04T23:08:45.572Z,79.88
2023-05-04T23:11:14.041Z,79.59
2023-05-04T23:13:42.844Z,80.12
2023-05-04T23:16:11.340Z,80.36
2023-05-04T23:18:39.899Z,80.35
2023-05-04T23:21:08.403Z,79.89
2023-05-04T23:23:38.937Z,80.35
2023-05-04T23:26:07.423Z,80.14
2023-05-04T23:28:35.927Z,80.23
2023-05-04T23:31:04.601Z,80.21
2023-05-04T23:33:33.181Z,79.84
2023-05-04T23:36:02.142Z,80.01
2023-05-04T23:38:30.708Z,80.60
2023-05-04T23:41:02.728Z,80.14
2023-05-04T23:43:32.271Z,82.32
2023-05-04T23:46:02.220Z,81.53
2023-05-04T23:48:30.965Z,81.12
2023-05-04T23:51:04.041Z,80.29
2023-05-04T23:53:33.865Z,80.97
2023-05-04T23:56:06.740Z,81.20
2023-05-04T23:58:36.164Z,80.63
